Time;durP1;ratioP1;P1;durP2;ratioP2;P2;SDS_P1;SDS_P2;PMS_P1;PMS_P2;Temp;Humidity;BMP_temperature;BMP_pressure;BME280_temperature;BME280_humidity;BME280_pressure;Samples;Min_cycle;Max_cycle;Signal;HPM_P1;HPM_P2
2024/02/21 00:01:47;;;;;;;11.20;5.45;;;;;;;-4.98;66.01;100303.88;5023722;28;20048;-53
2024/02/21 00:04:13;;;;;;;14.18;6.55;;;;;;;-4.98;65.88;100303.88;5022218;28;20128;-53
2024/02/21 00:06:39;;;;;;;9.93;4.88;;;;;;;-5.12;66.59;100284.72;5014363;28;20037;-53
2024/02/21 00:09:05;;;;;;;9.98;5.03;;;;;;;-5.03;66.66;100302.84;4985905;28;20068;-51
2024/02/21 00:11:31;;;;;;;9.75;5.50;;;;;;;-5.00;66.58;100295.34;5034128;28;20049;-52
2024/02/21 00:13:57;;;;;;;13.27;6.00;;;;;;;-4.94;66.63;100292.19;5024426;28;20187;-54
2024/02/21 00:16:22;;;;;;;13.55;5.88;;;;;;;-4.78;66.12;100280.13;5016734;28;20045;-52
2024/02/21 00:18:49;;;;;;;10.38;5.70;;;;;;;-4.86;65.61;100283.16;4983908;28;20464;-51
2024/02/21 00:21:17;;;;;;;14.05;5.78;;;;;;;-4.92;65.86;100288.03;5014631;28;20033;-50
2024/02/21 00:23:49;;;;;;;10.85;5.25;;;;;;;-4.97;66.31;100287.00;5023356;28;20041;-51
2024/02/21 00:26:15;;;;;;;8.50;4.57;;;;;;;-5.02;66.67;100289.34;5018237;28;20052;-48
2024/02/21 00:28:41;;;;;;;11.35;5.65;;;;;;;-5.05;65.79;100283.31;5022673;28;20099;-51
2024/02/21 00:31:07;;;;;;;14.23;5.88;;;;;;;-5.03;66.10;100286.78;5028251;28;20761;-50
2024/02/21 00:33:33;;;;;;;12.13;6.10;;;;;;;-5.21;66.35;100256.53;5006509;28;20402;-49
2024/02/21 00:35:59;;;;;;;11.35;5.57;;;;;;;-5.51;66.10;100214.84;5004277;28;20045;-52
2024/02/21 00:38:25;;;;;;;12.35;5.90;;;;;;;-5.06;66.09;100284.97;5014971;28;20056;-52
2024/02/21 00:40:50;;;;;;;11.00;4.78;;;;;;;-5.03;66.38;100274.97;5003718;28;20604;-51
2024/02/21 00:43:17;;;;;;;13.50;6.25;;;;;;;-5.01;66.61;100275.88;5008601;28;20536;-51
2024/02/21 00:45:43;;;;;;;12.57;5.93;;;;;;;-5.04;66.49;100268.16;5037695;28;20607;-51
2024/02/21 00:48:09;;;;;;;13.48;6.30;;;;;;;-4.96;66.10;100268.41;5024317;28;20078;-48
2024/02/21 00:50:35;;;;;;;14.05;6.82;;;;;;;-4.96;65.95;100259.16;5022783;28;20033;-50
2024/02/21 00:53:00;;;;;;;13.73;5.93;;;;;;;-4.83;66.21;100257.94;5024934;28;20050;-50
2024/02/21 00:55:26;;;;;;;18.45;6.95;;;;;;;-4.81;66.24;100263.91;5024533;28;20424;-53
2024/02/21 00:57:54;;;;;;;14.52;6.53;;;;;;;-4.81;65.86;100254.63;5023525;28;20033;-51
2024/02/21 01:00:20;;;;;;;12.07;6.40;;;;;;;-4.91;65.54;100244.09;5012811;28;20050;-52
2024/02/21 01:02:47;;;;;;;15.52;6.88;;;;;;;-4.85;65.76;100251.94;5024496;28;20116;-48
2024/02/21 01:05:13;;;;;;;12.48;6.13;;;;;;;-4.87;65.81;100249.38;5018051;28;20050;-54
2024/02/21 01:07:40;;;;;;;12.45;6.28;;;;;;;-4.78;65.72;100246.28;4998910;28;20041;-50
2024/02/21 01:10:06;;;;;;;12.70;5.57;;;;;;;-4.94;65.56;100200.91;5024953;28;20084;-50
2024/02/21 01:12:32;;;;;;;12.60;5.93;;;;;;;-4.75;65.86;100234.56;5022821;28;20081;-53
2024/02/21 01:14:58;;;;;;;18.77;8.20;;;;;;;-4.90;65.40;100200.19;5040406;28;20144;-51
2024/02/21 01:17:24;;;;;;;14.45;6.82;;;;;;;-4.66;64.95;100231.50;5011507;28;20509;-51
2024/02/21 01:19:50;;;;;;;13.85;5.75;;;;;;;-4.55;65.30;100230.19;5026714;28;20045;-52
2024/02/21 01:22:16;;;;;;;12.02;6.22;;;;;;;-4.67;65.14;100217.09;5027809;28;20148;-55
2024/02/21 01:24:42;;;;;;;16.27;6.22;;;;;;;-4.62;64.91;100224.84;5023764;28;20134;-53
2024/02/21 01:27:08;;;;;;;15.73;5.90;;;;;;;-4.65;65.69;100220.53;5033819;28;20803;-49
2024/02/21 01:29:34;;;;;;;17.63;6.63;;;;;;;-4.58;65.44;100219.94;5016920;28;20033;-59
2024/02/21 01:32:00;;;;;;;13.10;6.85;;;;;;;-4.52;65.24;100221.81;5012077;28;20061;-56
2024/02/21 01:34:26;;;;;;;18.08;5.80;;;;;;;-4.45;65.16;100224.59;5040275;28;20041;-53
2024/02/21 01:36:52;;;;;;;13.60;6.07;;;;;;;-4.71;64.75;100177.22;5010309;28;20038;-51
2024/02/21 01:39:18;;;;;;;14.30;6.78;;;;;;;-4.41;64.76;100216.31;5009797;28;20421;-51
2024/02/21 01:41:44;;;;;;;17.63;8.15;;;;;;;-4.34;64.80;100217.34;5015457;28;20060;-49
2024/02/21 01:44:10;;;;;;;15.18;6.70;;;;;;;-4.37;64.24;100210.53;5010988;28;20120;-49
2024/02/21 01:46:36;;;;;;;14.25;6.30;;;;;;;-4.39;65.02;100218.88;5023700;28;20064;-48
2024/02/21 01:49:02;;;;;;;13.18;6.80;;;;;;;-4.42;64.36;100211.16;5025047;28;20041;-52
2024/02/21 01:51:28;;;;;;;11.77;6.05;;;;;;;-4.41;64.73;100206.16;5012721;28;20054;-52
2024/02/21 01:53:55;;;;;;;11.68;5.55;;;;;;;-4.46;64.71;100202.59;5025709;28;20037;-49
2024/02/21 01:56:22;;;;;;;14.15;6.15;;;;;;;-4.43;64.78;100201.81;5028018;28;20045;-50
2024/02/21 01:58:49;;;;;;;8.93;5.32;;;;;;;-4.34;64.63;100202.13;5016158;28;20107;-49
2024/02/21 02:01:15;;;;;;;13.73;5.47;;;;;;;-4.37;64.43;100202.03;5024573;28;20037;-53
2024/02/21 02:03:41;;;;;;;12.50;6.57;;;;;;;-4.41;64.92;100203.63;5011305;28;20591;-52
2024/02/21 02:06:07;;;;;;;20.45;7.80;;;;;;;-4.42;64.63;100165.50;5024120;28;20784;-53
2024/02/21 02:08:35;;;;;;;13.32;6.40;;;;;;;-4.37;63.97;100163.97;4991150;28;20045;-52
2024/02/21 02:11:02;;;;;;;15.27;6.65;;;;;;;-4.17;64.86;100195.06;5018270;28;20053;-52
2024/02/21 02:13:31;;;;;;;13.77;5.70;;;;;;;-4.24;64.22;100201.66;5027051;28;20040;-51
2024/02/21 02:15:57;;;;;;;14.60;6.78;;;;;;;-4.24;64.80;100196.56;5025442;28;20578;-53
2024/02/21 02:18:23;;;;;;;13.10;6.60;;;;;;;-4.38;64.08;100163.09;5026875;28;20468;-51
2024/02/21 02:20:49;;;;;;;14.95;6.55;;;;;;;-4.15;64.09;100198.53;5060064;28;20046;-53
2024/02/21 02:23:23;;;;;;;13.13;6.60;;;;;;;-4.31;64.61;100162.50;5034703;28;20047;-52
2024/02/21 02:25:53;;;;;;;16.10;6.40;;;;;;;-4.02;64.00;100196.44;5026358;28;20068;-51
2024/02/21 02:28:20;;;;;;;15.60;6.63;;;;;;;-4.50;64.06;100128.88;5008565;28;20065;-55
2024/02/21 02:30:46;;;;;;;12.32;5.45;;;;;;;-4.04;64.05;100207.38;5009445;28;20029;-54
2024/02/21 02:33:13;;;;;;;13.30;6.88;;;;;;;-4.08;64.30;100203.84;5025972;28;20045;-50
2024/02/21 02:35:40;;;;;;;15.95;6.78;;;;;;;-3.87;64.09;100204.53;5027331;28;20470;-52
2024/02/21 02:38:06;;;;;;;12.68;6.00;;;;;;;-3.88;63.76;100192.66;5027711;28;20045;-55
2024/02/21 02:40:33;;;;;;;13.10;6.47;;;;;;;-3.89;63.86;100200.22;5020334;28;20394;-52
2024/02/21 02:43:03;;;;;;;12.40;5.65;;;;;;;-4.03;64.18;100181.16;5019216;28;20176;-53
2024/02/21 02:45:29;;;;;;;11.45;5.43;;;;;;;-3.95;63.86;100192.41;5029278;28;20048;-50
2024/02/21 02:47:58;;;;;;;11.93;5.45;;;;;;;-3.93;63.70;100193.34;4995750;28;20041;-53
2024/02/21 02:50:25;;;;;;;13.32;6.68;;;;;;;-4.02;64.10;100196.44;5012147;28;20056;-51
2024/02/21 02:52:51;;;;;;;14.60;6.45;;;;;;;-4.07;64.45;100197.97;5025281;28;20048;-54
2024/02/21 02:55:17;;;;;;;13.52;5.88;;;;;;;-4.04;64.60;100193.00;5020482;28;20164;-51
2024/02/21 02:57:42;;;;;;;12.23;5.38;;;;;;;-4.19;64.19;100151.88;5025928;28;20049;-54
2024/02/21 03:00:11;;;;;;;15.30;7.30;;;;;;;-3.89;64.15;100195.16;5022264;28;20407;-52
2024/02/21 03:02:39;;;;;;;11.13;5.07;;;;;;;-3.85;64.28;100184.25;5022933;28;20130;-53
2024/02/21 03:05:13;;;;;;;14.20;6.85;;;;;;;-3.82;63.91;100199.59;5009432;28;20133;-53
2024/02/21 03:07:39;;;;;;;11.30;5.40;;;;;;;-3.93;64.04;100185.72;5023573;28;20096;-49
2024/02/21 03:10:05;;;;;;;13.40;6.15;;;;;;;-3.85;64.53;100192.75;5010291;28;20030;-53
2024/02/21 03:12:31;;;;;;;10.50;6.32;;;;;;;-4.01;64.05;100162.59;5058985;28;21080;-51
2024/02/21 03:14:57;;;;;;;13.05;6.00;;;;;;;-4.07;64.21;100159.88;5025537;28;20041;-56
2024/02/21 03:17:22;;;;;;;19.05;7.45;;;;;;;-3.93;64.42;100161.19;5026688;28;20037;-52
2024/02/21 03:19:49;;;;;;;13.55;5.97;;;;;;;-3.75;63.87;100193.03;5026394;28;20072;-51
2024/02/21 03:22:16;;;;;;;13.32;6.85;;;;;;;-3.85;64.29;100186.81;5025949;28;20122;-52
2024/02/21 03:24:42;;;;;;;14.95;6.53;;;;;;;-3.88;64.42;100190.13;4991730;28;20044;-50
2024/02/21 03:27:08;;;;;;;12.27;5.78;;;;;;;-3.81;64.50;100180.13;5058785;28;20041;-52
2024/02/21 03:29:35;;;;;;;12.32;5.90;;;;;;;-3.83;64.74;100181.78;5036220;28;20052;-50
2024/02/21 03:32:01;;;;;;;9.82;5.25;;;;;;;-3.88;64.65;100187.59;5027641;28;20037;-54
2024/02/21 03:34:27;;;;;;;11.65;5.85;;;;;;;-3.91;64.78;100184.06;5054714;28;20470;-51
2024/02/21 03:36:53;;;;;;;16.23;6.22;;;;;;;-4.33;64.78;100123.50;5025902;28;20477;-53
2024/02/21 03:39:19;;;;;;;12.18;5.45;;;;;;;-4.13;65.24;100157.13;5027445;28;20060;-55
2024/02/21 03:41:45;;;;;;;9.85;4.65;;;;;;;-3.91;64.94;100179.00;5025397;28;20428;-50
2024/02/21 03:44:11;;;;;;;11.05;6.40;;;;;;;-4.05;65.31;100144.69;5005420;28;20042;-52
2024/02/21 03:46:37;;;;;;;17.05;5.95;;;;;;;-3.80;64.62;100181.84;5007128;28;20042;-52
2024/02/21 03:49:03;;;;;;;12.93;6.32;;;;;;;-3.79;64.75;100186.13;5012847;28;20041;-49
2024/02/21 03:51:29;;;;;;;12.23;6.00;;;;;;;-3.81;64.71;100183.53;5023759;28;20129;-53
2024/02/21 03:53:55;;;;;;;8.27;4.45;;;;;;;-3.84;64.93;100188.53;4992497;28;20041;-52
2024/02/21 03:56:21;;;;;;;18.90;6.95;;;;;;;-3.90;65.26;100190.88;5024262;28;20076;-50
2024/02/21 03:58:47;;;;;;;18.88;7.00;;;;;;;-4.14;65.32;100141.88;5009937;28;20789;-54
2024/02/21 04:01:15;;;;;;;12.30;5.50;;;;;;;-3.85;65.51;100181.72;5004254;28;20041;-53
2024/02/21 04:03:43;;;;;;;13.18;5.88;;;;;;;-3.85;65.49;100185.13;5007205;28;20045;-53
2024/02/21 04:06:09;;;;;;;14.32;6.15;;;;;;;-3.85;65.35;100187.66;5016202;28;20033;-56
2024/02/21 04:08:35;;;;;;;9.88;5.03;;;;;;;-3.90;65.70;100184.13;5025271;28;20132;-50
2024/02/21 04:11:01;;;;;;;13.98;6.13;;;;;;;-3.90;65.48;100190.88;5025577;28;20152;-56
2024/02/21 04:13:27;;;;;;;12.35;6.30;;;;;;;-3.81;65.64;100186.06;5024873;28;20037;-53
2024/02/21 04:15:54;;;;;;;11.50;5.25;;;;;;;-4.17;65.33;100121.47;5017282;28;20041;-53
2024/02/21 04:18:19;;;;;;;13.50;5.90;;;;;;;-3.79;65.71;100186.13;5022233;28;20041;-54
2024/02/21 04:20:45;;;;;;;12.18;5.90;;;;;;;-4.00;65.64;100160.94;5018891;28;20428;-51
2024/02/21 04:23:11;;;;;;;12.77;6.00;;;;;;;-3.76;65.68;100194.69;5015074;28;20516;-57
2024/02/21 04:25:37;;;;;;;14.90;6.55;;;;;;;-3.79;65.97;100198.84;5023958;28;20775;-56
2024/02/21 04:28:03;;;;;;;16.88;6.55;;;;;;;-3.82;65.75;100191.97;5024856;28;20467;-57
2024/02/21 04:30:30;;;;;;;12.40;5.20;;;;;;;-3.76;65.83;100192.16;5023763;28;20041;-51
2024/02/21 04:32:56;;;;;;;11.63;6.25;;;;;;;-3.77;65.43;100185.38;5017642;28;20184;-52
2024/02/21 04:35:22;;;;;;;19.33;7.55;;;;;;;-3.79;65.88;100186.13;5023540;28;20129;-52
2024/02/21 04:37:48;;;;;;;14.73;6.93;;;;;;;-3.78;65.87;100185.31;5009227;28;20880;-51
2024/02/21 04:40:16;;;;;;;13.93;6.53;;;;;;;-3.70;65.67;100184.72;5026114;28;20389;-52
2024/02/21 04:42:44;;;;;;;14.98;6.80;;;;;;;-4.10;66.00;100123.38;5035749;28;20056;-50
2024/02/21 04:45:10;;;;;;;17.90;6.82;;;;;;;-3.74;66.18;100188.00;5022583;28;20045;-50
2024/02/21 04:47:36;;;;;;;12.80;5.13;;;;;;;-3.73;65.62;100189.72;5024677;28;20061;-51
2024/02/21 04:50:02;;;;;;;13.88;6.43;;;;;;;-3.75;66.10;100188.81;5022354;28;20080;-54
2024/02/21 04:52:29;;;;;;;14.50;6.55;;;;;;;-3.72;66.18;100191.47;5022467;28;20053;-51
2024/02/21 04:54:56;;;;;;;10.68;5.07;;;;;;;-3.71;65.91;100183.00;5024444;28;20037;-52
2024/02/21 04:57:22;;;;;;;12.27;6.45;;;;;;;-3.67;65.94;100192.47;5010326;28;20883;-54
2024/02/21 04:59:47;;;;;;;13.00;5.97;;;;;;;-3.67;66.11;100192.47;5007326;28;20488;-49
2024/02/21 05:02:14;;;;;;;19.65;8.15;;;;;;;-3.76;66.11;100169.28;5025089;28;20099;-48
2024/02/21 05:04:41;;;;;;;15.40;6.63;;;;;;;-3.74;65.73;100161.72;5020803;28;20533;-50
2024/02/21 05:07:07;;;;;;;16.48;6.50;;;;;;;-3.58;65.95;100192.72;5017865;28;21041;-51
2024/02/21 05:09:34;;;;;;;8.18;4.75;;;;;;;-3.54;66.16;100188.59;5007158;28;20509;-52
2024/02/21 05:12:01;;;;;;;15.40;6.85;;;;;;;-3.51;65.76;100193.78;5055842;28;20044;-51
2024/02/21 05:14:27;;;;;;;13.45;5.90;;;;;;;-3.53;65.94;100185.25;5024202;28;20199;-51
2024/02/21 05:16:53;;;;;;;10.98;5.97;;;;;;;-3.51;66.18;100196.31;5015553;28;20635;-49
2024/02/21 05:19:19;;;;;;;12.55;5.68;;;;;;;-3.68;66.20;100159.38;5015434;28;20532;-50
2024/02/21 05:21:46;;;;;;;14.52;6.28;;;;;;;-3.53;66.09;100186.09;5008417;28;20037;-52
2024/02/21 05:24:12;;;;;;;11.85;6.32;;;;;;;-3.44;65.81;100185.50;5023255;28;20045;-52
2024/02/21 05:26:38;;;;;;;12.32;5.28;;;;;;;-3.39;65.86;100194.13;5003979;28;20033;-54
2024/02/21 05:29:04;;;;;;;15.65;5.93;;;;;;;-3.35;65.76;100195.97;5016599;28;20037;-53
2024/02/21 05:31:53;;;;;;;14.38;6.88;;;;;;;-3.33;65.78;100201.06;5009734;28;20077;-51
2024/02/21 05:34:20;;;;;;;15.38;7.03;;;;;;;-3.36;65.70;100180.66;5014905;28;20053;-51
2024/02/21 05:36:46;;;;;;;15.18;7.82;;;;;;;-3.25;65.68;100186.94;5022897;28;20040;-50
2024/02/21 05:39:13;;;;;;;19.92;7.80;;;;;;;-3.47;65.44;100149.84;5005716;28;20087;-50
2024/02/21 05:41:39;;;;;;;12.27;6.25;;;;;;;-3.15;65.26;100189.78;5021096;28;20103;-52
2024/02/21 05:44:05;;;;;;;14.15;6.68;;;;;;;-3.23;65.47;100170.00;5056249;28;20041;-50
2024/02/21 05:46:31;;;;;;;13.18;6.32;;;;;;;-3.14;65.38;100194.00;5020045;28;20091;-55
2024/02/21 05:48:57;;;;;;;14.05;6.53;;;;;;;-3.10;65.24;100188.22;5025708;28;20049;-54
2024/02/21 05:51:22;;;;;;;12.80;6.05;;;;;;;-3.05;65.26;100185.81;5009070;28;20040;-53
2024/02/21 05:53:48;;;;;;;10.95;6.18;;;;;;;-3.13;64.95;100166.91;5022252;28;20076;-51
2024/02/21 05:56:14;;;;;;;16.42;6.78;;;;;;;-3.01;65.17;100188.47;5006838;28;20744;-51
2024/02/21 05:58:40;;;;;;;13.95;6.80;;;;;;;-3.23;65.16;100147.13;5024446;28;20052;-52
2024/02/21 06:01:07;;;;;;;12.73;7.00;;;;;;;-2.86;64.99;100193.09;5027790;28;20029;-50
2024/02/21 06:03:33;;;;;;;15.05;7.10;;;;;;;-2.75;64.80;100199.34;5028623;28;20072;-54
2024/02/21 06:06:00;;;;;;;13.82;6.40;;;;;;;-2.75;64.53;100194.25;5009690;28;20057;-50
2024/02/21 06:08:26;;;;;;;15.38;6.22;;;;;;;-2.89;64.43;100167.59;4994309;28;20356;-55
2024/02/21 06:10:54;;;;;;;13.27;6.38;;;;;;;-2.93;64.64;100168.31;5048719;28;20041;-54
2024/02/21 06:13:24;;;;;;;12.52;6.00;;;;;;;-2.69;64.30;100180.84;5009653;28;20104;-53
2024/02/21 06:15:50;;;;;;;12.10;5.78;;;;;;;-2.83;64.36;100165.22;5022667;28;20038;-54
2024/02/21 06:18:20;;;;;;;12.27;6.20;;;;;;;-2.65;63.95;100203.00;5023023;28;20037;-54
2024/02/21 06:20:46;;;;;;;12.70;6.00;;;;;;;-2.84;64.14;100157.53;5025279;28;20397;-52
2024/02/21 06:23:13;;;;;;;14.02;6.18;;;;;;;-2.63;64.22;100188.66;5025970;28;20065;-50
2024/02/21 06:25:39;;;;;;;11.32;5.07;;;;;;;-2.60;63.99;100188.72;5058150;28;20041;-51
2024/02/21 06:28:06;;;;;;;14.48;6.40;;;;;;;-2.52;64.21;100194.88;5018117;28;20124;-51
2024/02/21 06:30:31;;;;;;;15.40;6.03;;;;;;;-2.49;63.84;100192.41;5018533;28;20044;-51
2024/02/21 06:32:59;;;;;;;11.40;6.40;;;;;;;-2.49;63.78;100194.94;5025617;28;20050;-55
2024/02/21 06:35:25;;;;;;;13.88;6.63;;;;;;;-2.36;63.84;100189.38;5010670;28;20072;-48
2024/02/21 06:37:51;;;;;;;10.60;5.68;;;;;;;-2.18;63.44;100187.25;5027383;28;20512;-48
2024/02/21 06:40:20;;;;;;;13.70;6.95;;;;;;;-2.12;63.33;100189.09;5006101;28;20049;-54
2024/02/21 06:42:46;;;;;;;9.05;4.90;;;;;;;-2.04;62.91;100190.13;5010042;28;20041;-50
2024/02/21 06:45:12;;;;;;;12.95;5.60;;;;;;;-2.04;62.84;100181.66;5025668;28;20042;-49
2024/02/21 06:47:38;;;;;;;15.73;6.40;;;;;;;-2.05;62.83;100192.66;5018680;28;20420;-52
2024/02/21 06:50:04;;;;;;;15.02;6.85;;;;;;;-2.06;62.72;100186.69;5012715;28;20456;-51
2024/02/21 06:52:32;;;;;;;16.42;6.75;;;;;;;-2.08;63.00;100184.94;5026941;28;20518;-54
2024/02/21 06:54:58;;;;;;;16.17;7.28;;;;;;;-2.04;62.88;100181.66;5008683;28;20041;-52
2024/02/21 06:57:24;;;;;;;12.20;7.10;;;;;;;-1.92;62.50;100189.56;5031962;28;20788;-53
2024/02/21 06:59:50;;;;;;;14.07;6.63;;;;;;;-1.92;62.52;100189.56;5033553;28;20038;-46
2024/02/21 07:02:16;;;;;;;12.65;5.97;;;;;;;-1.88;62.40;100186.25;5009267;28;20045;-51
2024/02/21 07:04:41;;;;;;;12.93;6.20;;;;;;;-1.91;62.39;100183.66;5017213;28;20041;-53
2024/02/21 07:07:08;;;;;;;13.25;6.18;;;;;;;-1.90;62.28;100183.69;5025221;28;20049;-53
2024/02/21 07:09:34;;;;;;;15.70;7.28;;;;;;;-1.88;62.29;100178.59;5022359;28;20040;-49
2024/02/21 07:12:00;;;;;;;18.33;7.22;;;;;;;-2.17;62.25;100112.59;5025388;28;20145;-50
2024/02/21 07:14:28;;;;;;;18.25;8.35;;;;;;;-1.56;62.23;100176.78;5025183;28;20037;-52
2024/02/21 07:16:54;;;;;;;12.00;5.90;;;;;;;-1.47;61.87;100170.22;5016631;28;20046;-55
2024/02/21 07:19:20;;;;;;;16.17;7.35;;;;;;;-1.45;61.44;100165.13;5008073;28;20838;-54
2024/02/21 07:21:46;;;;;;;11.00;6.20;;;;;;;-1.50;61.40;100166.72;5017052;28;20045;-52
2024/02/21 07:24:12;;;;;;;15.38;7.20;;;;;;;-1.56;61.29;100167.47;5024047;28;20531;-52
2024/02/21 07:26:42;;;;;;;13.60;6.70;;;;;;;-1.57;61.09;100170.84;5041488;28;20167;-54
2024/02/21 07:29:08;;;;;;;12.38;6.45;;;;;;;-1.77;61.59;100132.16;5042587;28;20033;-54
2024/02/21 07:31:44;;;;;;;16.42;6.55;;;;;;;-1.68;61.15;100145.97;5020586;28;20060;-56
2024/02/21 07:34:10;;;;;;;13.02;6.85;;;;;;;-1.61;60.88;100170.72;5005309;28;20612;-54
2024/02/21 07:36:39;;;;;;;16.33;7.20;;;;;;;-1.51;61.14;100165.88;5006185;28;20044;-54
2024/02/21 07:39:05;;;;;;;10.97;5.67;;;;;;;-1.58;61.23;100136.00;5005905;28;20412;-52
2024/02/21 07:41:32;;;;;;;9.55;5.22;;;;;;;-1.32;60.83;100170.56;5004741;28;20152;-52
2024/02/21 07:43:58;;;;;;;14.48;6.93;;;;;;;-1.49;60.81;100150.63;5017798;28;20527;-54
2024/02/21 07:46:24;;;;;;;15.98;6.25;;;;;;;-1.19;60.49;100164.00;5009305;28;20076;-52
2024/02/21 07:48:50;;;;;;;17.88;8.35;;;;;;;-0.65;60.40;100166.75;5025980;28;20053;-51
2024/02/21 07:51:18;;;;;;;14.25;6.50;;;;;;;-0.26;59.15;100104.44;5007172;28;20048;-55
2024/02/21 07:53:45;;;;;;;10.63;6.00;;;;;;;0.54;57.95;100150.75;5019397;28;20511;-56
2024/02/21 07:56:12;;;;;;;15.55;7.18;;;;;;;1.07;56.53;100151.41;5057579;28;20041;-51
2024/02/21 07:58:38;;;;;;;18.20;7.68;;;;;;;1.90;55.72;100151.34;4982550;28;20041;-52
2024/02/21 08:01:04;;;;;;;15.60;7.72;;;;;;;2.41;53.47;100125.19;5007073;28;20037;-51
2024/02/21 08:03:30;;;;;;;16.63;8.07;;;;;;;2.45;53.06;100148.34;5024995;28;20469;-55
2024/02/21 08:05:56;;;;;;;19.92;8.65;;;;;;;3.23;52.49;100146.94;5023995;28;20034;-49
2024/02/21 08:08:22;;;;;;;12.05;6.82;;;;;;;4.78;50.58;100141.69;5006066;28;20042;-55
2024/02/21 08:10:52;;;;;;;12.15;6.63;;;;;;;6.31;47.44;100147.59;5005366;28;20091;-54
2024/02/21 08:13:18;;;;;;;20.60;7.97;;;;;;;6.44;44.73;100123.34;5023024;28;20037;-52
2024/02/21 08:15:44;;;;;;;15.27;8.02;;;;;;;7.18;44.17;100126.75;5017410;28;20045;-53
2024/02/21 08:18:10;;;;;;;15.25;8.05;;;;;;;7.54;43.08;100138.31;5028606;28;20037;-54
2024/02/21 08:20:36;;;;;;;14.68;8.60;;;;;;;7.45;42.18;100135.84;5022535;28;20044;-53
2024/02/21 08:23:02;;;;;;;17.02;8.07;;;;;;;7.11;41.67;100138.06;4991692;28;20075;-55
2024/02/21 08:25:28;;;;;;;14.48;7.47;;;;;;;8.38;41.20;100146.44;5022336;28;20045;-54
2024/02/21 08:27:58;;;;;;;14.70;7.68;;;;;;;8.51;39.34;100136.72;5037437;28;20073;-54
2024/02/21 08:30:25;;;;;;;15.32;7.82;;;;;;;7.53;39.80;100136.63;5021037;28;20208;-55
2024/02/21 08:32:53;;;;;;;13.25;7.78;;;;;;;7.66;40.16;100136.41;5008272;28;20106;-56
2024/02/21 08:35:23;;;;;;;16.23;7.97;;;;;;;6.62;40.18;100096.47;5007368;28;20102;-52
2024/02/21 08:37:49;;;;;;;;;;;;;;;5.88;40.83;100149.69;5024649;28;20048;-54
2024/02/21 08:40:20;;;;;;;15.32;8.27;;;;;;;5.26;42.27;100127.72;5014037;28;19917;-55
2024/02/21 08:42:47;;;;;;;15.73;7.97;;;;;;;5.11;42.15;100077.13;5005186;28;20053;-51
2024/02/21 08:45:13;;;;;;;16.58;8.60;;;;;;;7.02;40.77;100104.56;4995796;28;20065;-55
2024/02/21 08:47:39;;;;;;;15.05;8.23;;;;;;;7.46;39.50;100132.41;5050903;28;20053;-51
2024/02/21 08:50:06;;;;;;;18.48;8.50;;;;;;;6.64;40.33;100105.06;5028789;28;20034;-53
2024/02/21 08:52:32;;;;;;;15.65;8.75;;;;;;;6.79;40.55;100128.13;5045787;28;20038;-54
2024/02/21 08:54:58;;;;;;;14.88;8.32;;;;;;;6.05;40.67;100127.19;5012268;28;20041;-51
2024/02/21 08:57:24;;;;;;;13.27;8.15;;;;;;;5.85;40.87;100135.06;5025085;28;20045;-53
2024/02/21 08:59:50;;;;;;;17.33;8.18;;;;;;;5.03;41.79;100137.28;5028641;28;20112;-52
2024/02/21 09:02:16;;;;;;;17.55;8.57;;;;;;;4.24;42.77;100134.97;5031169;28;20037;-49
2024/02/21 09:04:43;;;;;;;17.23;8.65;;;;;;;3.68;43.86;100128.16;4989634;28;20045;-52
2024/02/21 09:07:12;;;;;;;16.63;8.30;;;;;;;2.93;45.05;100128.88;4991458;28;20187;-56
2024/02/21 09:09:39;;;;;;;20.77;9.88;;;;;;;2.50;46.78;100135.53;5022064;28;20656;-49
2024/02/21 09:12:09;;;;;;;20.13;8.13;;;;;;;2.24;46.79;100114.84;5024289;28;20128;-53
2024/02/21 09:14:40;;;;;;;15.63;6.60;;;;;;;1.85;48.00;100135.94;4989936;28;20045;-54
2024/02/21 09:17:06;;;;;;;15.98;8.48;;;;;;;1.54;48.62;100124.56;5001314;28;20116;-54
2024/02/21 09:19:33;;;;;;;16.92;7.93;;;;;;;1.67;48.75;100121.25;5030460;28;20063;-52
2024/02/21 09:21:59;;;;;;;16.70;8.18;;;;;;;1.89;48.39;100112.03;5025542;28;20041;-54
2024/02/21 09:24:25;;;;;;;15.77;8.13;;;;;;;1.80;48.75;100118.81;5009077;28;20041;-55
2024/02/21 09:26:51;;;;;;;18.25;8.77;;;;;;;1.94;49.00;100119.75;4996005;28;20044;-52
2024/02/21 09:29:17;;;;;;;19.77;8.85;;;;;;;2.59;48.32;100115.03;5029035;28;20102;-51
2024/02/21 09:31:43;;;;;;;18.75;9.05;;;;;;;2.99;47.45;100116.88;5024293;28;20045;-57
2024/02/21 09:34:10;;;;;;;16.75;8.60;;;;;;;3.06;46.95;100084.38;5021945;28;20045;-49
2024/02/21 09:36:37;;;;;;;19.00;9.40;;;;;;;3.33;46.62;100117.84;5018663;28;20053;-53
2024/02/21 09:39:02;;;;;;;17.52;9.07;;;;;;;3.41;46.35;100107.56;5037939;28;20049;-53
2024/02/21 09:41:29;;;;;;;16.23;8.45;;;;;;;3.32;46.58;100110.97;5036081;28;20115;-51
2024/02/21 09:43:55;;;;;;;18.48;8.60;;;;;;;3.13;46.70;100101.53;5035520;28;20034;-51
2024/02/21 09:46:25;;;;;;;16.85;8.82;;;;;;;2.83;46.83;100061.19;5032590;28;20037;-48
2024/02/21 09:48:59;;;;;;;16.80;8.98;;;;;;;3.39;47.04;100096.44;5007174;28;20061;-52
2024/02/21 09:51:28;;;;;;;16.23;8.23;;;;;;;3.79;46.46;100100.72;5019772;28;20076;-51
2024/02/21 09:53:55;;;;;;;16.63;8.65;;;;;;;3.46;46.22;100112.69;5021637;28;20397;-55
2024/02/21 09:56:21;;;;;;;18.30;9.05;;;;;;;2.95;46.90;100088.63;5036347;28;20045;-51
2024/02/21 09:58:47;;;;;;;20.90;7.93;;;;;;;2.65;46.92;100062.88;5043305;28;20252;-54
2024/02/21 10:01:13;;;;;;;15.48;8.35;;;;;;;2.27;47.68;100068.69;5030541;28;20128;-51
2024/02/21 10:03:39;;;;;;;15.38;7.47;;;;;;;2.46;47.74;100108.13;5028042;28;20124;-55
2024/02/21 10:06:05;;;;;;;15.85;8.13;;;;;;;2.05;47.93;100070.25;5028110;28;20094;-51
2024/02/21 10:08:31;;;;;;;16.58;7.95;;;;;;;2.11;48.34;100088.25;5027962;28;20041;-49
2024/02/21 10:11:00;;;;;;;19.83;8.48;;;;;;;2.29;48.45;100084.94;5015976;28;20424;-54
2024/02/21 10:13:27;;;;;;;16.40;8.23;;;;;;;2.51;48.34;100086.75;5027487;28;20053;-55
2024/02/21 10:16:07;;;;;;;25.02;7.05;;;;;;;2.55;48.28;100090.22;5024127;28;20048;-54
2024/02/21 10:18:33;;;;;;;;;;;;;;;2.57;48.14;100093.63;5026066;28;20091;-53
2024/02/21 10:21:06;;;;;;;11.68;6.03;;;;;;;2.26;48.06;100092.63;5043093;28;19913;-52
2024/02/21 10:23:46;;;;;;;14.52;6.55;;;;;;;1.72;49.04;100079.44;5023116;28;20048;-52
2024/02/21 10:26:13;;;;;;;14.93;5.25;;;;;;;1.79;49.13;100081.19;5013415;28;20629;-53
2024/02/21 10:28:42;;;;;;;16.08;7.38;;;;;;;1.57;50.04;100088.72;5027102;28;20041;-54
2024/02/21 10:31:09;;;;;;;13.77;7.18;;;;;;;1.52;49.93;100081.81;5015151;28;20037;-51
2024/02/21 10:33:37;;;;;;;14.70;6.85;;;;;;;1.45;50.01;100087.75;5016634;28;20543;-54
2024/02/21 10:36:10;;;;;;;12.90;6.47;;;;;;;1.16;50.46;100090.91;5025944;28;20041;-50
2024/02/21 10:38:38;;;;;;;15.68;6.70;;;;;;;1.15;50.66;100080.66;5027561;28;20052;-55
2024/02/21 10:41:05;;;;;;;14.60;7.03;;;;;;;0.90;50.98;100043.69;5014087;28;20044;-57
2024/02/21 10:43:40;;;;;;;14.05;6.80;;;;;;;0.95;51.07;100046.31;5008366;28;20151;-51
2024/02/21 10:46:11;;;;;;;14.02;6.68;;;;;;;0.99;51.36;100048.94;5013609;28;20045;-54
2024/02/21 10:48:45;;;;;;;15.20;6.88;;;;;;;1.02;51.54;100095.03;5019911;28;20118;-54
2024/02/21 10:51:19;;;;;;;11.05;5.03;;;;;;;0.61;52.26;100086.91;5024687;28;20034;-56
2024/02/21 10:53:54;;;;;;;13.75;6.65;;;;;;;0.40;52.52;100094.31;5016976;28;20620;-52
2024/02/21 10:56:40;;;;;;;12.75;5.72;;;;;;;-0.04;53.04;100051.09;5035721;28;20049;-52
2024/02/21 10:59:07;;;;;;;13.55;5.95;;;;;;;-0.29;53.47;100020.06;5008381;28;20053;-54
2024/02/21 11:01:35;;;;;;;14.48;7.15;;;;;;;0.29;53.33;100085.63;5023672;28;20037;-52
2024/02/21 11:04:03;;;;;;;;;;;;;;;0.33;53.54;100093.34;5005110;28;20050;-55
2024/02/21 11:06:29;;;;;;;11.30;4.97;;;;;;;0.28;53.40;100082.22;5055900;28;19921;-56
2024/02/21 11:09:05;;;;;;;11.30;5.72;;;;;;;0.18;53.37;100084.63;4977277;28;20041;-54
2024/02/21 11:11:49;;;;;;;25.23;6.63;;;;;;;0.31;53.86;100073.75;5025523;28;20053;-52
2024/02/21 11:14:20;;;;;;;10.60;5.63;;;;;;;0.39;53.94;100072.13;5050058;28;20084;-51
2024/02/21 11:16:47;;;;;;;12.40;6.65;;;;;;;0.27;54.12;100069.41;5022219;28;20516;-56
2024/02/21 11:19:20;;;;;;;14.40;6.10;;;;;;;0.19;54.26;100078.69;5026577;28;20049;-50
2024/02/21 11:21:49;;;;;;;8.82;5.20;;;;;;;0.10;54.40;100068.34;5025203;28;20611;-52